createdAt,value
2017-11-19T00:03:29.074Z,6.00
2017-11-19T00:05:57.087Z,6.00
2017-11-19T00:08:25.122Z,6.00
2017-11-19T00:10:53.207Z,6.10
2017-11-19T00:13:21.230Z,6.20
2017-11-19T00:15:49.490Z,6.20
2017-11-19T00:18:18.537Z,6.20
2017-11-19T00:20:46.803Z,6.20
2017-11-19T00:23:15.105Z,6.20
2017-11-19T00:25:43.347Z,6.10
2017-11-19T00:28:11.625Z,6.10
2017-11-19T00:30:39.870Z,6.20
2017-11-19T00:33:08.193Z,6.20
2017-11-19T00:35:36.438Z,6.20
2017-11-19T00:38:05.491Z,6.10
2017-11-19T00:40:33.744Z,6.10
2017-11-19T00:43:02.031Z,6.20
2017-11-19T00:45:30.333Z,6.10
2017-11-19T00:47:58.613Z,6.10
2017-11-19T00:50:26.892Z,6.10
2017-11-19T00:52:55.143Z,6.10
2017-11-19T00:55:23.415Z,6.10
2017-11-19T00:57:52.441Z,6.10
2017-11-19T01:00:20.709Z,6.10
2017-11-19T01:02:48.966Z,6.00
2017-11-19T01:05:22.888Z,6.00
2017-11-19T01:07:51.893Z,6.00
2017-11-19T01:10:20.924Z,6.00
2017-11-19T01:12:49.181Z,6.00
2017-11-19T01:15:17.523Z,5.90
2017-11-19T01:17:45.797Z,5.90
2017-11-19T01:20:14.261Z,6.00
2017-11-19T01:22:42.526Z,5.90
2017-11-19T01:25:10.794Z,5.90
2017-11-19T01:27:39.058Z,6.00
2017-11-19T01:30:08.101Z,6.00
2017-11-19T01:32:36.354Z,6.00
2017-11-19T01:35:04.663Z,6.00
2017-11-19T01:37:32.913Z,6.00
2017-11-19T01:40:01.188Z,6.00
2017-11-19T01:42:30.206Z,6.00
2017-11-19T01:44:58.528Z,6.00
2017-11-19T01:47:26.780Z,6.10
2017-11-19T01:49:55.029Z,6.10
2017-11-19T01:52:23.300Z,6.10
2017-11-19T01:54:52.323Z,6.10
2017-11-19T01:57:20.626Z,6.10
2017-11-19T01:59:48.841Z,6.20
2017-11-19T02:02:29.171Z,6.10
2017-11-19T02:04:57.469Z,6.10
2017-11-19T02:07:25.729Z,6.10
2017-11-19T02:09:53.979Z,6.10
2017-11-19T02:12:23.115Z,6.10
2017-11-19T02:14:51.703Z,6.10
2017-11-19T02:17:19.978Z,6.20
2017-11-19T02:19:48.233Z,6.20
2017-11-19T02:22:16.497Z,6.20
2017-11-19T02:24:45.553Z,6.30
2017-11-19T02:27:13.842Z,6.30
2017-11-19T02:29:42.119Z,6.30
2017-11-19T02:32:10.398Z,6.30
2017-11-19T02:34:38.701Z,6.20
2017-11-19T02:37:06.955Z,6.20
2017-11-19T02:39:35.223Z,6.30
2017-11-19T02:42:03.534Z,6.30
2017-11-19T02:44:31.794Z,6.30
2017-11-19T02:47:00.068Z,6.30
2017-11-19T02:49:28.330Z,6.30
2017-11-19T02:51:57.476Z,6.20
2017-11-19T02:54:25.725Z,6.20
2017-11-19T02:56:54.036Z,6.30
2017-11-19T02:59:22.287Z,6.20
2017-11-19T03:01:50.565Z,6.20
2017-11-19T03:04:18.825Z,6.20
2017-11-19T03:06:47.868Z,6.30
2017-11-19T03:09:16.130Z,6.30
2017-11-19T03:11:44.397Z,6.30
2017-11-19T03:14:13.431Z,6.40
2017-11-19T03:16:41.722Z,6.40
2017-11-19T03:19:10.024Z,6.40
2017-11-19T03:21:38.388Z,6.40
2017-11-19T03:24:06.755Z,6.40
2017-11-19T03:26:35.018Z,6.40
2017-11-19T03:29:03.284Z,6.50
2017-11-19T03:31:32.330Z,6.40
2017-11-19T03:34:00.600Z,6.40
2017-11-19T03:36:28.879Z,6.40
2017-11-19T03:38:57.152Z,6.40
2017-11-19T03:41:25.400Z,6.40
2017-11-19T03:43:53.694Z,6.40
2017-11-19T03:46:22.700Z,6.10
2017-11-19T03:48:51.010Z,6.10
2017-11-19T03:51:19.250Z,6.10
2017-11-19T03:53:48.277Z,6.30
2017-11-19T03:56:16.671Z,6.30
2017-11-19T03:58:44.929Z,6.20
2017-11-19T04:01:13.238Z,6.10
2017-11-19T04:03:41.516Z,6.00
2017-11-19T04:06:09.877Z,6.00
2017-11-19T04:08:38.136Z,6.10
2017-11-19T04:11:07.153Z,6.20
2017-11-19T04:13:35.448Z,6.20
2017-11-19T04:16:03.687Z,6.30
2017-11-19T04:18:32.835Z,6.40
2017-11-19T04:21:01.116Z,6.40
2017-11-19T04:23:29.357Z,6.30
2017-11-19T04:25:58.377Z,6.40
2017-11-19T04:28:26.635Z,6.40
2017-11-19T04:30:55.672Z,6.30
2017-11-19T04:33:24.064Z,6.30
2017-11-19T04:35:52.320Z,6.30
2017-11-19T04:38:20.629Z,6.20
2017-11-19T04:40:48.905Z,6.20
2017-11-19T04:43:17.150Z,6.20
2017-11-19T04:45:46.173Z,6.30
2017-11-19T04:48:14.468Z,6.30
2017-11-19T04:50:42.724Z,6.40
2017-11-19T04:53:10.997Z,6.50
2017-11-19T04:55:40.125Z,6.60
2017-11-19T04:58:08.404Z,6.60
2017-11-19T05:00:36.663Z,6.60
2017-11-19T05:03:04.909Z,6.70
2017-11-19T05:05:33.177Z,6.70
2017-11-19T05:08:01.441Z,6.70
2017-11-19T05:10:29.706Z,6.70
2017-11-19T05:12:57.997Z,6.80
2017-11-19T05:15:26.294Z,6.80
2017-11-19T05:17:54.541Z,6.80
2017-11-19T05:20:22.801Z,6.70
2017-11-19T05:22:51.816Z,6.60
2017-11-19T05:25:20.089Z,6.60
2017-11-19T05:27:48.358Z,6.60
2017-11-19T05:30:17.408Z,6.30
2017-11-19T05:32:45.656Z,6.20
2017-11-19T05:35:13.892Z,6.10
2017-11-19T05:37:42.184Z,6.00
2017-11-19T05:40:10.414Z,6.10
2017-11-19T05:42:38.675Z,6.10
2017-11-19T05:45:06.984Z,6.10
2017-11-19T05:47:35.268Z,6.10
2017-11-19T05:50:03.554Z,6.00
2017-11-19T05:52:31.816Z,5.80
2017-11-19T05:55:00.112Z,5.80
2017-11-19T05:57:28.387Z,5.70
2017-11-19T05:59:56.667Z,5.70
2017-11-19T06:02:24.936Z,5.80
2017-11-19T06:04:53.178Z,5.80
2017-11-19T06:07:21.441Z,5.80
2017-11-19T06:09:49.684Z,5.90
2017-11-19T06:12:17.934Z,5.90
2017-11-19T06:14:46.934Z,6.00
2017-11-19T06:17:15.971Z,6.00
2017-11-19T06:19:44.228Z,6.00
2017-11-19T06:22:12.504Z,6.00
2017-11-19T06:24:40.812Z,5.90
2017-11-19T06:27:09.069Z,5.90
2017-11-19T06:29:37.308Z,6.00
2017-11-19T06:32:05.625Z,6.00
2017-11-19T06:34:34.660Z,6.10
2017-11-19T06:37:03.698Z,6.00
2017-11-19T06:39:31.916Z,6.10
2017-11-19T06:42:00.158Z,6.10
2017-11-19T06:44:28.503Z,6.10
2017-11-19T06:46:56.752Z,6.10
2017-11-19T06:49:25.792Z,6.10
2017-11-19T06:51:54.048Z,6.10
2017-11-19T06:54:22.363Z,5.90
2017-11-19T06:56:50.598Z,6.00
2017-11-19T06:59:19.700Z,6.00
2017-11-19T07:01:48.721Z,5.90
2017-11-19T07:04:17.008Z,5.90
2017-11-19T07:06:45.297Z,5.90
2017-11-19T07:09:13.544Z,5.80
2017-11-19T07:11:41.856Z,5.80
2017-11-19T07:14:10.131Z,5.80
2017-11-19T07:16:38.356Z,5.90
2017-11-19T07:19:06.612Z,6.00
2017-11-19T07:21:34.868Z,6.00
2017-11-19T07:24:03.127Z,6.10
2017-11-19T07:26:31.364Z,6.20
2017-11-19T07:28:59.624Z,6.50
2017-11-19T07:31:27.868Z,6.70
2017-11-19T07:33:56.892Z,7.30
2017-11-19T07:36:25.248Z,7.30
2017-11-19T07:38:54.294Z,7.80
2017-11-19T07:41:22.567Z,7.80
2017-11-19T07:43:50.831Z,7.90
2017-11-19T07:46:19.089Z,8.00
2017-11-19T07:48:48.152Z,7.70
2017-11-19T07:51:16.388Z,7.70
2017-11-19T07:53:44.678Z,7.60
2017-11-19T07:56:12.911Z,7.40
2017-11-19T07:58:41.172Z,7.40
2017-11-19T08:01:09.444Z,7.50
2017-11-19T08:03:38.426Z,7.60
2017-11-19T08:06:06.705Z,7.50
2017-11-19T08:08:35.687Z,7.30
2017-11-19T08:11:03.945Z,7.30
2017-11-19T08:13:32.288Z,7.10
2017-11-19T08:16:00.533Z,6.90
2017-11-19T08:18:28.784Z,7.00
2017-11-19T08:20:57.029Z,7.30
2017-11-19T08:23:25.272Z,7.40
2017-11-19T08:25:54.295Z,7.40
2017-11-19T08:28:22.556Z,7.40
2017-11-19T08:30:50.820Z,7.40
2017-11-19T08:33:19.833Z,7.40
2017-11-19T08:35:48.087Z,7.30
2017-11-19T08:38:17.092Z,7.50
2017-11-19T08:40:46.132Z,7.40
2017-11-19T08:43:14.364Z,7.40
2017-11-19T08:45:42.704Z,7.40
2017-11-19T08:48:10.956Z,7.40
2017-11-19T08:50:39.243Z,7.60
2017-11-19T08:53:08.264Z,8.70
2017-11-19T08:55:36.520Z,8.70
2017-11-19T08:58:04.828Z,9.60
2017-11-19T09:00:33.108Z,10.20
2017-11-19T09:03:01.353Z,11.10
2017-11-19T09:05:30.376Z,11.90
2017-11-19T09:07:58.647Z,11.80
2017-11-19T09:10:26.891Z,12.30
2017-11-19T09:12:55.282Z,12.60
2017-11-19T09:15:23.527Z,12.80
2017-11-19T09:17:51.899Z,13.00
2017-11-19T09:20:20.147Z,13.10
2017-11-19T09:22:48.425Z,12.30
2017-11-19T09:25:17.428Z,12.80
2017-11-19T09:27:45.696Z,12.80
2017-11-19T09:30:14.723Z,13.70
2017-11-19T09:32:42.994Z,13.70
2017-11-19T09:35:12.320Z,13.90
2017-11-19T09:37:40.572Z,13.80
2017-11-19T09:40:10.846Z,13.70
2017-11-19T09:42:39.095Z,13.60
2017-11-19T09:45:08.263Z,13.10
2017-11-19T09:47:36.600Z,12.60
2017-11-19T09:50:04.849Z,12.10
2017-11-19T09:52:33.152Z,11.80
2017-11-19T09:55:01.404Z,11.30
2017-11-19T09:57:30.588Z,10.10
2017-11-19T09:59:58.824Z,10.10
2017-11-19T10:02:27.083Z,9.80
2017-11-19T10:04:55.338Z,9.60
2017-11-19T10:07:23.593Z,9.00
2017-11-19T10:09:51.860Z,8.80
2017-11-19T10:12:20.315Z,8.50
2017-11-19T10:14:48.557Z,8.40
2017-11-19T10:17:16.841Z,8.50
2017-11-19T10:19:45.100Z,8.40
2017-11-19T10:22:13.341Z,8.40
2017-11-19T10:24:42.360Z,8.30
2017-11-19T10:27:10.740Z,8.30
2017-11-19T10:29:38.997Z,8.10
2017-11-19T10:32:08.004Z,7.90
2017-11-19T10:34:36.251Z,7.80
2017-11-19T10:37:05.306Z,7.60
2017-11-19T10:39:33.560Z,7.60
2017-11-19T10:42:01.796Z,7.60
2017-11-19T10:44:30.056Z,7.50
2017-11-19T10:46:58.332Z,7.60
2017-11-19T10:49:26.612Z,7.60
2017-11-19T10:51:54.881Z,7.70
2017-11-19T10:54:23.128Z,7.70
2017-11-19T10:56:51.477Z,7.60
2017-11-19T10:59:19.702Z,7.60
2017-11-19T11:01:48.004Z,7.70
2017-11-19T11:04:16.284Z,7.70
2017-11-19T11:06:44.518Z,7.60
2017-11-19T11:09:13.565Z,7.80
2017-11-19T11:11:41.863Z,7.80
2017-11-19T11:14:11.907Z,7.60
2017-11-19T11:16:40.186Z,7.60
2017-11-19T11:19:08.451Z,7.70
2017-11-19T11:21:36.718Z,7.80
2017-11-19T11:24:04.981Z,7.90
2017-11-19T11:26:33.220Z,7.90
2017-11-19T11:29:01.552Z,8.00
2017-11-19T11:31:29.798Z,8.00
2017-11-19T11:33:58.800Z,8.00
2017-11-19T11:36:27.813Z,8.00
2017-11-19T11:38:56.060Z,8.00
2017-11-19T11:41:25.116Z,8.10
2017-11-19T11:43:53.394Z,8.10
2017-11-19T11:46:21.699Z,8.00
2017-11-19T11:48:49.941Z,7.90
2017-11-19T11:51:18.200Z,7.90
2017-11-19T11:53:47.235Z,7.90
2017-11-19T11:56:15.477Z,7.90
2017-11-19T11:58:44.491Z,8.10
2017-11-19T12:01:14.100Z,8.00
2017-11-19T12:03:43.114Z,8.10
2017-11-19T12:06:11.372Z,8.10
2017-11-19T12:08:40.443Z,8.10
2017-11-19T12:11:08.791Z,8.00
2017-11-19T12:13:37.033Z,7.90
2017-11-19T12:16:06.068Z,7.80
2017-11-19T12:18:34.309Z,7.80
2017-11-19T12:21:03.329Z,8.00
2017-11-19T12:23:31.693Z,7.90
2017-11-19T12:26:00.016Z,8.10
2017-11-19T12:28:28.297Z,8.00
2017-11-19T12:30:56.575Z,8.20
2017-11-19T12:33:24.812Z,8.20
2017-11-19T12:35:53.836Z,8.20
2017-11-19T12:38:22.080Z,8.20
2017-11-19T12:40:55.294Z,8.10
2017-11-19T12:43:24.856Z,8.30
2017-11-19T12:45:53.101Z,8.30
2017-11-19T12:48:21.365Z,8.30
2017-11-19T12:50:50.377Z,8.30
2017-11-19T12:53:18.655Z,8.30
2017-11-19T12:55:47.683Z,8.40
2017-11-19T12:58:15.936Z,8.40
2017-11-19T13:00:44.939Z,8.40
2017-11-19T13:03:13.208Z,8.40
2017-11-19T13:05:42.216Z,8.20
2017-11-19T13:08:10.513Z,8.10
2017-11-19T13:10:38.755Z,8.10
2017-11-19T13:13:07.797Z,8.10
2017-11-19T13:15:36.047Z,8.00
2017-11-19T13:18:04.365Z,8.00
2017-11-19T13:20:32.657Z,8.10
2017-11-19T13:23:00.935Z,8.10
2017-11-19T13:25:29.187Z,8.00
2017-11-19T13:27:58.217Z,8.00
2017-11-19T13:30:26.465Z,8.00
2017-11-19T13:32:55.485Z,8.00
2017-11-19T13:35:23.733Z,8.00
2017-11-19T13:37:52.764Z,8.10
2017-11-19T13:40:21.005Z,8.10
2017-11-19T13:42:49.264Z,8.10
2017-11-19T13:45:17.535Z,8.10
2017-11-19T13:47:45.825Z,8.10
2017-11-19T13:50:14.074Z,8.30
2017-11-19T13:52:42.361Z,8.30
2017-11-19T13:55:10.610Z,8.40
2017-11-19T13:57:39.636Z,8.40
2017-11-19T14:00:07.872Z,8.40
2017-11-19T14:02:36.120Z,8.40
2017-11-19T14:05:04.493Z,8.40
2017-11-19T14:07:32.731Z,8.50
2017-11-19T14:10:01.752Z,8.40
2017-11-19T14:12:30.144Z,8.40
2017-11-19T14:14:58.404Z,8.50
2017-11-19T14:17:27.416Z,8.30
2017-11-19T14:19:55.681Z,8.30
2017-11-19T14:22:24.708Z,8.30
2017-11-19T14:24:52.971Z,8.30
2017-11-19T14:27:21.271Z,8.20
2017-11-19T14:29:49.548Z,8.10
2017-11-19T14:32:17.801Z,8.10
2017-11-19T14:34:46.821Z,7.90
2017-11-19T14:37:15.112Z,7.90
2017-11-19T14:39:43.373Z,8.00
2017-11-19T14:42:11.620Z,8.00
2017-11-19T14:44:39.961Z,7.80
2017-11-19T14:47:08.204Z,7.80
2017-11-19T14:49:36.521Z,7.80
2017-11-19T14:52:04.763Z,7.90
2017-11-19T14:54:33.808Z,7.90
2017-11-19T14:57:02.045Z,7.90
2017-11-19T14:59:31.072Z,7.80
2017-11-19T15:01:59.315Z,7.80
2017-11-19T15:04:28.356Z,7.80
2017-11-19T15:06:56.645Z,7.70
2017-11-19T15:09:24.904Z,7.70
2017-11-19T15:11:53.148Z,7.70
2017-11-19T15:14:21.385Z,7.70
2017-11-19T15:16:49.629Z,7.60
2017-11-19T15:19:18.703Z,7.70
2017-11-19T15:21:46.971Z,7.70
2017-11-19T15:24:15.220Z,7.70
2017-11-19T15:26:43.479Z,7.70
2017-11-19T15:29:11.726Z,7.70
2017-11-19T15:31:40.070Z,7.70
2017-11-19T15:34:08.312Z,7.70
2017-11-19T15:36:37.342Z,7.70
2017-11-19T15:39:05.585Z,7.60
2017-11-19T15:41:34.603Z,7.60
2017-11-19T15:44:03.782Z,7.60
2017-11-19T15:46:32.824Z,7.70
2017-11-19T15:49:01.109Z,7.70
2017-11-19T15:51:29.360Z,7.70
2017-11-19T15:53:57.690Z,7.70
2017-11-19T15:56:25.924Z,7.70
2017-11-19T15:58:54.224Z,7.80
2017-11-19T16:01:22.523Z,7.60
2017-11-19T16:03:50.752Z,7.60
2017-11-19T16:06:19.781Z,7.50
2017-11-19T16:08:48.024Z,7.50
2017-11-19T16:11:16.281Z,7.50
2017-11-19T16:13:44.528Z,7.50
2017-11-19T16:16:12.798Z,7.50
2017-11-19T16:18:41.803Z,7.60
2017-11-19T16:21:10.073Z,7.50
2017-11-19T16:23:39.104Z,7.40
2017-11-19T16:26:07.397Z,7.40
2017-11-19T16:28:35.656Z,7.20
2017-11-19T16:31:03.938Z,7.00
2017-11-19T16:33:32.192Z,7.00
2017-11-19T16:36:01.200Z,6.90
2017-11-19T16:38:30.224Z,6.90
2017-11-19T16:40:58.463Z,6.90
2017-11-19T16:43:27.483Z,7.00
2017-11-19T16:45:55.737Z,7.00
2017-11-19T16:48:24.774Z,7.10
2017-11-19T16:50:53.023Z,7.10
2017-11-19T16:53:22.191Z,7.20
2017-11-19T16:55:50.544Z,7.20
2017-11-19T16:58:19.001Z,7.30
2017-11-19T17:00:47.454Z,7.30
2017-11-19T17:03:16.036Z,7.40
2017-11-19T17:05:44.434Z,7.40
2017-11-19T17:08:12.960Z,7.40
2017-11-19T17:10:42.213Z,7.40
2017-11-19T17:13:15.981Z,7.40
2017-11-19T17:15:45.128Z,7.30
2017-11-19T17:18:13.598Z,7.20
2017-11-19T17:20:42.015Z,7.10
2017-11-19T17:23:11.358Z,6.90
2017-11-19T17:25:40.401Z,6.90
2017-11-19T17:28:09.016Z,6.80
2017-11-19T17:30:37.576Z,6.70
2017-11-19T17:33:07.274Z,6.90
2017-11-19T17:35:42.209Z,7.00
2017-11-19T17:38:10.817Z,6.90
2017-11-19T17:40:41.773Z,6.90
2017-11-19T17:43:10.357Z,7.00
2017-11-19T17:45:38.845Z,7.10
2017-11-19T17:48:08.459Z,7.20
2017-11-19T17:50:37.822Z,7.10
2017-11-19T17:53:06.561Z,7.10
2017-11-19T17:55:35.149Z,7.10
2017-11-19T17:58:03.530Z,7.20
2017-11-19T18:00:32.845Z,7.30
2017-11-19T18:03:01.423Z,7.30
2017-11-19T18:05:30.683Z,7.60
2017-11-19T18:07:59.319Z,7.60
2017-11-19T18:10:27.826Z,7.60
2017-11-19T18:12:56.223Z,7.70
2017-11-19T18:15:24.860Z,7.70
2017-11-19T18:17:53.950Z,7.60
2017-11-19T18:20:22.492Z,7.60
2017-11-19T18:22:51.974Z,7.70
2017-11-19T18:25:20.566Z,7.60
2017-11-19T18:27:49.023Z,7.60
2017-11-19T18:30:18.487Z,7.60
2017-11-19T18:32:47.864Z,7.40
2017-11-19T18:35:16.593Z,7.30
2017-11-19T18:37:45.112Z,7.30
2017-11-19T18:40:14.160Z,7.40
2017-11-19T18:42:42.735Z,7.40
2017-11-19T18:45:11.347Z,7.30
2017-11-19T18:47:40.633Z,7.10
2017-11-19T18:50:09.217Z,7.10
2017-11-19T18:52:37.612Z,7.00
2017-11-19T18:55:06.062Z,6.90
2017-11-19T18:57:36.031Z,6.80
2017-11-19T19:00:04.592Z,6.80
2017-11-19T19:02:32.969Z,6.80
2017-11-19T19:05:02.279Z,7.00
2017-11-19T19:07:30.671Z,7.00
2017-11-19T19:09:59.254Z,7.00
2017-11-19T19:12:28.661Z,7.10
2017-11-19T19:14:57.266Z,7.10
2017-11-19T19:17:25.766Z,7.10
2017-11-19T19:19:54.433Z,7.10
2017-11-19T19:22:22.903Z,7.10
2017-11-19T19:24:52.260Z,7.00
2017-11-19T19:27:20.911Z,7.00
2017-11-19T19:29:50.314Z,7.10
2017-11-19T19:32:18.886Z,7.10
2017-11-19T19:34:48.107Z,7.20
2017-11-19T19:37:17.513Z,7.20
2017-11-19T19:39:46.904Z,7.20
2017-11-19T19:42:15.379Z,7.20
2017-11-19T19:44:44.403Z,7.20
2017-11-19T19:47:12.795Z,7.10
2017-11-19T19:49:41.268Z,7.00
2017-11-19T19:52:09.756Z,7.00
2017-11-19T19:54:38.358Z,6.90
2017-11-19T19:57:06.915Z,6.90
2017-11-19T19:59:35.274Z,6.90
2017-11-19T20:02:04.014Z,6.80
2017-11-19T20:04:32.447Z,7.00
2017-11-19T20:07:00.874Z,6.80
2017-11-19T20:09:29.570Z,6.80
2017-11-19T20:11:58.158Z,6.90
2017-11-19T20:14:26.747Z,7.00
2017-11-19T20:16:55.550Z,7.00
2017-11-19T20:19:24.815Z,7.00
2017-11-19T20:21:53.445Z,7.00
2017-11-19T20:24:21.941Z,7.00
2017-11-19T20:26:50.558Z,7.10
2017-11-19T20:29:19.052Z,7.00
2017-11-19T20:31:47.584Z,7.00
2017-11-19T20:34:16.998Z,6.70
2017-11-19T20:36:46.616Z,6.80
2017-11-19T20:39:15.201Z,6.70
2017-11-19T20:41:43.547Z,6.80
2017-11-19T20:44:11.808Z,6.80
2017-11-19T20:46:40.036Z,6.80
2017-11-19T20:49:08.290Z,6.60
2017-11-19T20:51:36.668Z,6.60
2017-11-19T20:54:04.942Z,6.60
2017-11-19T20:56:33.958Z,6.50
2017-11-19T20:59:02.237Z,6.50
2017-11-19T21:01:30.471Z,6.50
2017-11-19T21:03:59.489Z,6.30
2017-11-19T21:06:27.742Z,6.30
2017-11-19T21:08:56.111Z,6.40
2017-11-19T21:11:24.420Z,6.50
2017-11-19T21:13:53.445Z,6.50
2017-11-19T21:16:22.075Z,6.50
2017-11-19T21:18:51.226Z,6.60
2017-11-19T21:21:19.489Z,6.60
2017-11-19T21:23:48.648Z,6.30
2017-11-19T21:26:17.745Z,6.20
2017-11-19T21:28:48.382Z,6.20
2017-11-19T21:31:22.259Z,6.20
2017-11-19T21:33:50.516Z,6.30
2017-11-19T21:36:19.520Z,6.40
2017-11-19T21:38:48.640Z,6.30
2017-11-19T21:41:16.939Z,6.30
2017-11-19T21:43:45.182Z,6.20
2017-11-19T21:46:13.439Z,6.20
2017-11-19T21:48:41.697Z,6.10
2017-11-19T21:51:09.947Z,6.00
2017-11-19T21:53:38.197Z,6.10
2017-11-19T21:56:07.452Z,6.10
2017-11-19T21:58:35.672Z,6.10
2017-11-19T22:01:03.926Z,6.10
2017-11-19T22:03:32.168Z,6.10
2017-11-19T22:06:00.475Z,6.20
2017-11-19T22:08:28.747Z,6.20
2017-11-19T22:10:57.001Z,6.20
2017-11-19T22:13:26.003Z,6.20
2017-11-19T22:15:54.256Z,6.20
2017-11-19T22:18:22.484Z,6.30
2017-11-19T22:20:50.813Z,6.30
2017-11-19T22:23:19.042Z,6.40
2017-11-19T22:25:54.625Z,6.50
2017-11-19T22:28:23.780Z,6.50
2017-11-19T22:30:52.806Z,6.50
2017-11-19T22:33:21.053Z,6.50
2017-11-19T22:35:50.113Z,6.40
2017-11-19T22:38:18.347Z,6.40
2017-11-19T22:40:46.644Z,6.30
2017-11-19T22:43:14.895Z,6.30
2017-11-19T22:45:43.951Z,6.20
2017-11-19T22:48:12.183Z,6.20
2017-11-19T22:50:40.487Z,6.20
2017-11-19T22:53:08.727Z,6.10
2017-11-19T22:55:37.873Z,6.10
2017-11-19T22:58:06.111Z,6.10
2017-11-19T23:00:35.132Z,6.00
2017-11-19T23:03:03.376Z,6.00
2017-11-19T23:05:31.721Z,6.00
2017-11-19T23:07:59.957Z,5.90
2017-11-19T23:10:28.975Z,5.90
2017-11-19T23:12:57.211Z,6.00
2017-11-19T23:15:25.476Z,6.00
2017-11-19T23:17:53.715Z,6.00
2017-11-19T23:20:21.973Z,6.00
2017-11-19T23:22:50.983Z,6.00
2017-11-19T23:25:19.240Z,6.00
2017-11-19T23:27:48.284Z,6.00
2017-11-19T23:30:16.530Z,6.00
2017-11-19T23:32:44.802Z,6.00
2017-11-19T23:35:13.128Z,6.10
2017-11-19T23:37:41.371Z,6.10
2017-11-19T23:40:10.400Z,6.00
2017-11-19T23:42:38.728Z,6.00
2017-11-19T23:45:06.983Z,5.90
2017-11-19T23:47:35.218Z,5.90
2017-11-19T23:50:03.523Z,5.80
2017-11-19T23:52:31.759Z,5.90
2017-11-19T23:55:00.024Z,5.90
2017-11-19T23:57:28.385Z,6.00
2017-11-19T23:59:56.650Z,6.00
